sensor_id;sensor_type;location;lat;lon;timestamp;temperature;humidity
12460;DHT22;6295;49.452;8.466;2023-07-29T03:13:56;18.70;99.90
12460;DHT22;6295;49.452;8.466;2023-07-29T03:22:01;18.60;99.90
12460;DHT22;6295;49.452;8.466;2023-07-29T03:34:14;18.70;99.90
12460;DHT22;6295;49.452;8.466;2023-07-29T03:38:16;18.60;99.90
12460;DHT22;6295;49.452;8.466;2023-07-29T03:42:18;18.60;99.90
12460;DHT22;6295;49.452;8.466;2023-07-29T03:46:22;18.60;99.90
12460;DHT22;6295;49.452;8.466;2023-07-29T03:50:24;18.70;99.90
12460;DHT22;6295;49.452;8.466;2023-07-29T03:54:26;18.60;99.90
12460;DHT22;6295;49.452;8.466;2023-07-29T03:58:28;18.60;99.90
12460;DHT22;6295;49.452;8.466;2023-07-29T04:02:32;18.60;99.90
12460;DHT22;6295;49.452;8.466;2023-07-29T04:06:34;18.60;99.90
12460;DHT22;6295;49.452;8.466;2023-07-29T04:10:36;18.60;99.90
12460;DHT22;6295;49.452;8.466;2023-07-29T04:14:38;18.70;99.90
12460;DHT22;6295;49.452;8.466;2023-07-29T04:18:42;18.60;99.90
12460;DHT22;6295;49.452;8.466;2023-07-29T04:22:44;18.60;99.90
12460;DHT22;6295;49.452;8.466;2023-07-29T04:26:46;18.60;99.90
12460;DHT22;6295;49.452;8.466;2023-07-29T04:34:51;18.70;99.90
12460;DHT22;6295;49.452;8.466;2023-07-29T04:38:54;18.70;99.90
12460;DHT22;6295;49.452;8.466;2023-07-29T04:42:56;18.70;99.90
12460;DHT22;6295;49.452;8.466;2023-07-29T04:46:58;18.70;99.90
12460;DHT22;6295;49.452;8.466;2023-07-29T04:51:01;18.80;99.90
12460;DHT22;6295;49.452;8.466;2023-07-29T04:55:04;18.80;99.90
12460;DHT22;6295;49.452;8.466;2023-07-29T04:59:08;18.80;99.90
12460;DHT22;6295;49.452;8.466;2023-07-29T05:03:15;18.70;99.90
12460;DHT22;6295;49.452;8.466;2023-07-29T05:07:23;18.80;99.90
12460;DHT22;6295;49.452;8.466;2023-07-29T05:11:28;18.80;99.90
12460;DHT22;6295;49.452;8.466;2023-07-29T05:15:30;18.80;99.90
12460;DHT22;6295;49.452;8.466;2023-07-29T05:19:32;18.80;99.90
12460;DHT22;6295;49.452;8.466;2023-07-29T05:23:36;18.80;99.90
12460;DHT22;6295;49.452;8.466;2023-07-29T05:27:40;18.80;99.90
12460;DHT22;6295;49.452;8.466;2023-07-29T05:31:46;18.90;99.90
12460;DHT22;6295;49.452;8.466;2023-07-29T05:35:52;18.80;99.90
12460;DHT22;6295;49.452;8.466;2023-07-29T05:39:58;18.90;99.90
12460;DHT22;6295;49.452;8.466;2023-07-29T05:48:03;18.90;99.90
12460;DHT22;6295;49.452;8.466;2023-07-29T05:52:06;18.90;99.90
12460;DHT22;6295;49.452;8.466;2023-07-29T05:56:09;19.00;99.90
12460;DHT22;6295;49.452;8.466;2023-07-29T06:00:12;19.00;99.90
12460;DHT22;6295;49.452;8.466;2023-07-29T06:04:14;19.00;99.90
12460;DHT22;6295;49.452;8.466;2023-07-29T06:08:19;19.10;99.90
12460;DHT22;6295;49.452;8.466;2023-07-29T06:12:26;19.10;99.90
12460;DHT22;6295;49.452;8.466;2023-07-29T06:16:28;19.10;99.90
12460;DHT22;6295;49.452;8.466;2023-07-29T06:20:30;19.20;99.90
12460;DHT22;6295;49.452;8.466;2023-07-29T06:28:36;19.20;99.90
12460;DHT22;6295;49.452;8.466;2023-07-29T06:32:38;19.30;99.90
12460;DHT22;6295;49.452;8.466;2023-07-29T06:40:43;19.40;99.90
12460;DHT22;6295;49.452;8.466;2023-07-29T06:44:46;19.40;99.90
12460;DHT22;6295;49.452;8.466;2023-07-29T06:48:48;19.40;99.90
12460;DHT22;6295;49.452;8.466;2023-07-29T06:52:50;19.50;99.90
12460;DHT22;6295;49.452;8.466;2023-07-29T06:56:53;19.60;99.90
12460;DHT22;6295;49.452;8.466;2023-07-29T07:00:56;19.70;99.90
12460;DHT22;6295;49.452;8.466;2023-07-29T07:04:58;19.70;99.90
12460;DHT22;6295;49.452;8.466;2023-07-29T07:09:00;19.80;99.90
12460;DHT22;6295;49.452;8.466;2023-07-29T07:13:03;19.80;99.90
12460;DHT22;6295;49.452;8.466;2023-07-29T07:17:07;19.90;99.90
12460;DHT22;6295;49.452;8.466;2023-07-29T07:21:09;20.00;99.90
12460;DHT22;6295;49.452;8.466;2023-07-29T07:25:12;20.10;99.90
12460;DHT22;6295;49.452;8.466;2023-07-29T07:29:14;20.10;99.90
12460;DHT22;6295;49.452;8.466;2023-07-29T07:33:18;20.20;99.90
12460;DHT22;6295;49.452;8.466;2023-07-29T07:37:20;20.20;99.90
12460;DHT22;6295;49.452;8.466;2023-07-29T07:41:22;20.30;99.90
12460;DHT22;6295;49.452;8.466;2023-07-29T07:49:29;20.40;99.90
12460;DHT22;6295;49.452;8.466;2023-07-29T07:53:31;20.40;99.90
12460;DHT22;6295;49.452;8.466;2023-07-29T07:57:33;20.50;99.90
12460;DHT22;6295;49.452;8.466;2023-07-29T08:01:36;20.60;99.90
12460;DHT22;6295;49.452;8.466;2023-07-29T08:05:40;20.70;99.90
12460;DHT22;6295;49.452;8.466;2023-07-29T08:09:42;20.90;99.90
12460;DHT22;6295;49.452;8.466;2023-07-29T08:13:44;21.00;99.90
12460;DHT22;6295;49.452;8.466;2023-07-29T08:17:46;21.00;99.90
12460;DHT22;6295;49.452;8.466;2023-07-29T08:21:50;21.00;99.90
12460;DHT22;6295;49.452;8.466;2023-07-29T08:25:56;20.90;99.90
12460;DHT22;6295;49.452;8.466;2023-07-29T08:30:02;20.90;99.90
12460;DHT22;6295;49.452;8.466;2023-07-29T08:34:04;20.80;99.90
12460;DHT22;6295;49.452;8.466;2023-07-29T08:38:07;20.80;99.90
12460;DHT22;6295;49.452;8.466;2023-07-29T08:42:11;20.80;99.90
12460;DHT22;6295;49.452;8.466;2023-07-29T08:46:13;20.80;99.90
12460;DHT22;6295;49.452;8.466;2023-07-29T08:50:17;20.90;99.90
12460;DHT22;6295;49.452;8.466;2023-07-29T08:54:20;21.00;99.90
12460;DHT22;6295;49.452;8.466;2023-07-29T08:58:23;21.10;99.90
12460;DHT22;6295;49.452;8.466;2023-07-29T09:02:26;21.30;99.90
12460;DHT22;6295;49.452;8.466;2023-07-29T09:06:28;21.40;99.90
12460;DHT22;6295;49.452;8.466;2023-07-29T09:10:35;21.50;99.90
12460;DHT22;6295;49.452;8.466;2023-07-29T09:14:39;21.60;99.90
12460;DHT22;6295;49.452;8.466;2023-07-29T09:18:42;21.70;99.90
12460;DHT22;6295;49.452;8.466;2023-07-29T09:22:44;21.80;99.90
12460;DHT22;6295;49.452;8.466;2023-07-29T09:26:50;22.00;99.90
12460;DHT22;6295;49.452;8.466;2023-07-29T09:30:54;22.00;99.90
12460;DHT22;6295;49.452;8.466;2023-07-29T09:34:56;22.30;99.90
12460;DHT22;6295;49.452;8.466;2023-07-29T09:38:59;22.40;99.90
12460;DHT22;6295;49.452;8.466;2023-07-29T09:43:05;22.50;99.90
12460;DHT22;6295;49.452;8.466;2023-07-29T09:47:07;22.50;99.90
12460;DHT22;6295;49.452;8.466;2023-07-29T09:51:11;22.60;99.90
12460;DHT22;6295;49.452;8.466;2023-07-29T09:55:13;22.70;99.90
12460;DHT22;6295;49.452;8.466;2023-07-29T09:59:23;22.80;99.90
12460;DHT22;6295;49.452;8.466;2023-07-29T10:03:26;22.80;99.90
12460;DHT22;6295;49.452;8.466;2023-07-29T10:07:29;22.80;99.90
12460;DHT22;6295;49.452;8.466;2023-07-29T10:11:33;22.80;99.90
12460;DHT22;6295;49.452;8.466;2023-07-29T10:15:38;22.80;99.90
12460;DHT22;6295;49.452;8.466;2023-07-29T10:19:40;22.90;99.90
12460;DHT22;6295;49.452;8.466;2023-07-29T10:23:47;23.10;99.90
12460;DHT22;6295;49.452;8.466;2023-07-29T10:27:55;23.30;99.90
12460;DHT22;6295;49.452;8.466;2023-07-29T10:32:01;23.50;99.90
12460;DHT22;6295;49.452;8.466;2023-07-29T10:36:04;23.60;99.90
12460;DHT22;6295;49.452;8.466;2023-07-29T10:40:08;23.80;99.90
12460;DHT22;6295;49.452;8.466;2023-07-29T10:44:48;23.90;99.90
12460;DHT22;6295;49.452;8.466;2023-07-29T10:48:58;24.00;99.90
12460;DHT22;6295;49.452;8.466;2023-07-29T10:53:00;24.10;99.90
12460;DHT22;6295;49.452;8.466;2023-07-29T10:57:04;24.20;99.90
12460;DHT22;6295;49.452;8.466;2023-07-29T11:01:13;24.40;99.90
12460;DHT22;6295;49.452;8.466;2023-07-29T11:05:18;24.40;99.90
12460;DHT22;6295;49.452;8.466;2023-07-29T11:09:40;24.50;99.90
12460;DHT22;6295;49.452;8.466;2023-07-29T11:13:43;24.60;99.90
12460;DHT22;6295;49.452;8.466;2023-07-29T11:17:46;24.70;99.90
12460;DHT22;6295;49.452;8.466;2023-07-29T11:21:52;24.80;99.90
12460;DHT22;6295;49.452;8.466;2023-07-29T11:25:56;24.70;99.90
12460;DHT22;6295;49.452;8.466;2023-07-29T11:29:59;24.70;99.90
12460;DHT22;6295;49.452;8.466;2023-07-29T11:34:07;24.70;99.90
12460;DHT22;6295;49.452;8.466;2023-07-29T11:38:15;24.70;99.90
12460;DHT22;6295;49.452;8.466;2023-07-29T11:42:17;24.70;99.90
12460;DHT22;6295;49.452;8.466;2023-07-29T11:46:22;24.80;99.90
12460;DHT22;6295;49.452;8.466;2023-07-29T11:50:24;24.80;99.90
12460;DHT22;6295;49.452;8.466;2023-07-29T11:54:31;24.90;99.90
12460;DHT22;6295;49.452;8.466;2023-07-29T11:58:36;25.00;99.90
12460;DHT22;6295;49.452;8.466;2023-07-29T12:02:42;25.00;99.90
12460;DHT22;6295;49.452;8.466;2023-07-29T12:06:46;25.00;99.90
12460;DHT22;6295;49.452;8.466;2023-07-29T12:10:51;25.20;99.90
12460;DHT22;6295;49.452;8.466;2023-07-29T12:14:54;25.30;99.90
12460;DHT22;6295;49.452;8.466;2023-07-29T12:19:00;25.40;99.90
12460;DHT22;6295;49.452;8.466;2023-07-29T12:23:02;25.50;99.90
12460;DHT22;6295;49.452;8.466;2023-07-29T12:27:10;25.60;99.90
12460;DHT22;6295;49.452;8.466;2023-07-29T12:31:13;25.70;99.90
12460;DHT22;6295;49.452;8.466;2023-07-29T12:35:15;25.80;99.90
12460;DHT22;6295;49.452;8.466;2023-07-29T12:39:18;25.80;99.90
12460;DHT22;6295;49.452;8.466;2023-07-29T12:43:22;25.90;99.90
12460;DHT22;6295;49.452;8.466;2023-07-29T12:47:24;25.90;99.90
12460;DHT22;6295;49.452;8.466;2023-07-29T12:51:26;26.00;99.90
12460;DHT22;6295;49.452;8.466;2023-07-29T12:55:28;25.90;99.90
12460;DHT22;6295;49.452;8.466;2023-07-29T12:59:32;26.00;99.90
12460;DHT22;6295;49.452;8.466;2023-07-29T13:03:34;25.90;99.90
12460;DHT22;6295;49.452;8.466;2023-07-29T13:11:39;26.00;99.90
12460;DHT22;6295;49.452;8.466;2023-07-29T13:15:42;26.10;99.90
12460;DHT22;6295;49.452;8.466;2023-07-29T13:19:44;26.10;99.90
12460;DHT22;6295;49.452;8.466;2023-07-29T13:23:46;26.00;99.90
12460;DHT22;6295;49.452;8.466;2023-07-29T13:27:48;25.90;99.90
12460;DHT22;6295;49.452;8.466;2023-07-29T13:31:55;25.90;99.90
12460;DHT22;6295;49.452;8.466;2023-07-29T13:35:59;26.00;99.90
12460;DHT22;6295;49.452;8.466;2023-07-29T13:40:03;26.00;99.90
12460;DHT22;6295;49.452;8.466;2023-07-29T13:44:05;25.90;99.90
12460;DHT22;6295;49.452;8.466;2023-07-29T13:48:08;25.70;99.90
12460;DHT22;6295;49.452;8.466;2023-07-29T13:52:12;25.50;99.90
12460;DHT22;6295;49.452;8.466;2023-07-29T13:56:14;25.40;99.90
12460;DHT22;6295;49.452;8.466;2023-07-29T14:04:20;25.70;99.90
12460;DHT22;6295;49.452;8.466;2023-07-29T14:08:23;25.70;99.90
12460;DHT22;6295;49.452;8.466;2023-07-29T14:12:25;25.90;99.90
12460;DHT22;6295;49.452;8.466;2023-07-29T14:16:27;26.10;99.90
12460;DHT22;6295;49.452;8.466;2023-07-29T14:20:30;26.10;99.90
12460;DHT22;6295;49.452;8.466;2023-07-29T14:24:33;26.30;99.90
12460;DHT22;6295;49.452;8.466;2023-07-29T14:28:35;26.30;99.90
12460;DHT22;6295;49.452;8.466;2023-07-29T14:32:37;26.10;99.90
12460;DHT22;6295;49.452;8.466;2023-07-29T14:36:45;26.00;99.90
12460;DHT22;6295;49.452;8.466;2023-07-29T14:40:48;25.90;99.90
12460;DHT22;6295;49.452;8.466;2023-07-29T14:44:51;25.90;99.90
12460;DHT22;6295;49.452;8.466;2023-07-29T14:48:53;25.80;99.90
12460;DHT22;6295;49.452;8.466;2023-07-29T14:52:57;25.70;99.90
12460;DHT22;6295;49.452;8.466;2023-07-29T14:56:59;25.70;99.90
12460;DHT22;6295;49.452;8.466;2023-07-29T15:01:01;25.90;99.90
12460;DHT22;6295;49.452;8.466;2023-07-29T15:05:04;26.00;99.90
12460;DHT22;6295;49.452;8.466;2023-07-29T15:09:07;26.20;99.90
12460;DHT22;6295;49.452;8.466;2023-07-29T15:13:09;26.20;99.90
12460;DHT22;6295;49.452;8.466;2023-07-29T15:17:12;26.20;99.90
12460;DHT22;6295;49.452;8.466;2023-07-29T15:21:15;26.00;99.90
12460;DHT22;6295;49.452;8.466;2023-07-29T15:25:19;25.90;99.90
12460;DHT22;6295;49.452;8.466;2023-07-29T15:29:21;26.00;99.90
12460;DHT22;6295;49.452;8.466;2023-07-29T15:33:24;26.10;99.90
12460;DHT22;6295;49.452;8.466;2023-07-29T15:37:28;26.20;99.90
12460;DHT22;6295;49.452;8.466;2023-07-29T15:41:34;26.20;99.90
12460;DHT22;6295;49.452;8.466;2023-07-29T15:45:36;26.20;99.90
12460;DHT22;6295;49.452;8.466;2023-07-29T15:49:39;26.30;99.90
12460;DHT22;6295;49.452;8.466;2023-07-29T15:57:49;26.50;99.90
12460;DHT22;6295;49.452;8.466;2023-07-29T16:01:51;26.40;99.90
12460;DHT22;6295;49.452;8.466;2023-07-29T16:05:53;26.30;99.90
12460;DHT22;6295;49.452;8.466;2023-07-29T16:09:55;26.20;99.90
12460;DHT22;6295;49.452;8.466;2023-07-29T16:13:58;26.00;99.90
12460;DHT22;6295;49.452;8.466;2023-07-29T16:18:01;25.90;99.90
12460;DHT22;6295;49.452;8.466;2023-07-29T16:22:03;25.80;99.90
12460;DHT22;6295;49.452;8.466;2023-07-29T16:26:05;25.80;99.90
12460;DHT22;6295;49.452;8.466;2023-07-29T16:30:09;25.80;99.90
12460;DHT22;6295;49.452;8.466;2023-07-29T16:34:11;25.80;99.90
12460;DHT22;6295;49.452;8.466;2023-07-29T16:38:15;25.80;99.90
12460;DHT22;6295;49.452;8.466;2023-07-29T16:42:19;25.80;99.90
12460;DHT22;6295;49.452;8.466;2023-07-29T16:46:23;25.70;99.90
12460;DHT22;6295;49.452;8.466;2023-07-29T16:50:25;25.50;99.90
12460;DHT22;6295;49.452;8.466;2023-07-29T16:54:27;25.40;99.90
12460;DHT22;6295;49.452;8.466;2023-07-29T16:58:29;25.20;99.90
12460;DHT22;6295;49.452;8.466;2023-07-29T17:02:33;24.50;99.90
12460;DHT22;6295;49.452;8.466;2023-07-29T17:06:35;25.30;99.90
12460;DHT22;6295;49.452;8.466;2023-07-29T17:10:37;25.30;99.90
12460;DHT22;6295;49.452;8.466;2023-07-29T17:14:39;25.30;99.90
12460;DHT22;6295;49.452;8.466;2023-07-29T17:18:43;25.30;99.90
12460;DHT22;6295;49.452;8.466;2023-07-29T17:22:45;25.20;99.90
12460;DHT22;6295;49.452;8.466;2023-07-29T17:26:47;25.10;99.90
12460;DHT22;6295;49.452;8.466;2023-07-29T17:30:49;25.20;99.90
12460;DHT22;6295;49.452;8.466;2023-07-29T17:34:53;25.30;99.90
12460;DHT22;6295;49.452;8.466;2023-07-29T17:38:55;25.50;99.90
12460;DHT22;6295;49.452;8.466;2023-07-29T17:42:59;25.70;99.90
12460;DHT22;6295;49.452;8.466;2023-07-29T17:47:02;25.80;99.90
12460;DHT22;6295;49.452;8.466;2023-07-29T17:51:06;25.90;99.90
12460;DHT22;6295;49.452;8.466;2023-07-29T17:55:08;25.80;99.90
12460;DHT22;6295;49.452;8.466;2023-07-29T17:59:11;25.50;99.90
12460;DHT22;6295;49.452;8.466;2023-07-29T18:03:13;25.40;99.90
12460;DHT22;6295;49.452;8.466;2023-07-29T18:07:16;25.30;99.90
12460;DHT22;6295;49.452;8.466;2023-07-29T18:11:18;25.20;99.90
12460;DHT22;6295;49.452;8.466;2023-07-29T18:19:23;24.90;99.90
12460;DHT22;6295;49.452;8.466;2023-07-29T18:23:30;24.70;99.90
12460;DHT22;6295;49.452;8.466;2023-07-29T18:27:33;24.60;99.90
12460;DHT22;6295;49.452;8.466;2023-07-29T18:31:36;24.50;99.90
12460;DHT22;6295;49.452;8.466;2023-07-29T18:35:40;24.30;99.90
12460;DHT22;6295;49.452;8.466;2023-07-29T18:39:46;24.20;99.90
12460;DHT22;6295;49.452;8.466;2023-07-29T18:43:48;24.10;99.90
12460;DHT22;6295;49.452;8.466;2023-07-29T18:47:57;24.10;99.90
12460;DHT22;6295;49.452;8.466;2023-07-29T18:52:01;24.00;99.90
